createdAt,value
2023-01-25T00:03:42.253Z,27.87
2023-01-25T00:07:45.306Z,29.37
2023-01-25T00:11:48.346Z,29.43
2023-01-25T00:15:53.659Z,28.17
2023-01-25T00:20:02.929Z,29.40
2023-01-25T00:24:06.839Z,31.57
2023-01-25T00:28:10.742Z,29.70
2023-01-25T00:32:38.754Z,28.33
2023-01-25T00:36:42.684Z,27.13
2023-01-25T00:40:46.680Z,29.03
2023-01-25T00:44:50.231Z,26.90
2023-01-25T00:48:55.906Z,26.60
2023-01-25T00:52:58.763Z,26.63
2023-01-25T00:57:01.600Z,24.87
2023-01-25T01:01:05.691Z,27.30
2023-01-25T01:05:11.262Z,25.77
2023-01-25T01:09:18.539Z,24.10
2023-01-25T01:13:27.646Z,25.97
2023-01-25T01:17:37.672Z,23.03
2023-01-25T01:21:42.056Z,28.23
2023-01-25T01:25:45.198Z,24.67
2023-01-25T01:29:48.197Z,25.80
2023-01-25T01:33:51.503Z,25.80
2023-01-25T01:37:55.841Z,24.57
2023-01-25T01:41:59.599Z,29.87
2023-01-25T01:46:04.531Z,26.07
2023-01-25T01:50:20.595Z,28.30
2023-01-25T01:54:29.942Z,27.83
2023-01-25T01:58:34.689Z,26.53
2023-01-25T02:02:38.140Z,27.43
2023-01-25T02:06:48.035Z,30.23
2023-01-25T02:10:58.716Z,26.77
2023-01-25T02:15:24.187Z,29.63
2023-01-25T02:19:41.898Z,30.70
2023-01-25T02:23:52.131Z,28.37
2023-01-25T02:28:02.181Z,27.20
2023-01-25T02:32:07.372Z,30.43
2023-01-25T02:36:25.025Z,27.70
2023-01-25T02:40:28.437Z,29.37
2023-01-25T02:44:34.607Z,29.13
2023-01-25T02:48:40.031Z,29.73
2023-01-25T02:52:43.008Z,28.53
2023-01-25T02:56:46.466Z,28.67
2023-01-25T03:00:51.522Z,31.37
2023-01-25T03:04:55.660Z,29.70
2023-01-25T03:09:00.095Z,29.17
2023-01-25T03:13:03.571Z,27.77
2023-01-25T03:17:08.411Z,29.80
2023-01-25T03:21:13.600Z,30.37
2023-01-25T03:25:16.567Z,29.00
2023-01-25T03:29:30.471Z,30.27
2023-01-25T03:33:35.475Z,29.87
2023-01-25T03:37:38.979Z,30.07
2023-01-25T03:41:42.041Z,33.00
2023-01-25T03:45:52.908Z,33.67
2023-01-25T03:49:57.300Z,30.23
2023-01-25T03:54:00.527Z,32.97
2023-01-25T03:58:04.532Z,33.10
2023-01-25T04:02:08.056Z,31.23
2023-01-25T04:06:12.653Z,29.63
2023-01-25T04:10:16.810Z,34.43
2023-01-25T04:14:35.063Z,31.60
2023-01-25T04:18:46.111Z,30.70
2023-01-25T04:22:52.082Z,31.47
2023-01-25T04:26:56.993Z,33.57
2023-01-25T04:31:06.062Z,33.40
2023-01-25T04:35:15.499Z,34.50
2023-01-25T04:39:21.188Z,35.90
2023-01-25T04:43:26.096Z,39.43
2023-01-25T04:47:33.809Z,33.33
2023-01-25T04:51:37.106Z,35.20
2023-01-25T04:55:41.502Z,39.47
2023-01-25T04:59:45.544Z,39.87
2023-01-25T05:03:49.167Z,36.50
2023-01-25T05:08:05.134Z,36.87
2023-01-25T05:12:13.475Z,39.77
2023-01-25T05:16:40.171Z,38.80
2023-01-25T05:20:43.842Z,41.67
2023-01-25T05:24:48.515Z,40.90
2023-01-25T05:28:53.817Z,39.60
2023-01-25T05:33:09.690Z,39.90
2023-01-25T05:37:14.525Z,42.60
2023-01-25T05:41:20.341Z,48.87
2023-01-25T05:45:25.581Z,43.13
2023-01-25T05:49:31.250Z,39.40
2023-01-25T05:53:34.866Z,40.83
2023-01-25T05:57:39.281Z,37.87
2023-01-25T06:01:44.530Z,36.00
2023-01-25T06:05:48.706Z,37.07
2023-01-25T06:09:52.056Z,40.80
2023-01-25T06:13:55.330Z,37.30
2023-01-25T06:17:59.744Z,36.40
2023-01-25T06:22:12.380Z,36.83
2023-01-25T06:26:16.966Z,33.77
2023-01-25T06:30:19.974Z,35.27
2023-01-25T06:34:24.799Z,33.67
2023-01-25T06:38:29.247Z,36.60
2023-01-25T06:42:33.047Z,34.80
2023-01-25T06:46:36.004Z,37.03
2023-01-25T06:50:40.381Z,34.20
2023-01-25T06:54:43.219Z,38.07
2023-01-25T06:58:46.512Z,35.73
2023-01-25T07:02:49.415Z,33.93
2023-01-25T07:06:53.651Z,37.27
2023-01-25T07:10:58.128Z,30.03
2023-01-25T07:15:00.915Z,37.37
2023-01-25T07:19:04.104Z,35.57
2023-01-25T07:23:08.976Z,39.43
2023-01-25T07:27:11.896Z,41.50
2023-01-25T07:31:15.178Z,33.83
2023-01-25T07:35:17.960Z,35.03
2023-01-25T07:39:22.110Z,36.97
2023-01-25T07:43:25.537Z,38.90
2023-01-25T07:47:28.433Z,35.63
2023-01-25T07:51:31.249Z,33.77
2023-01-25T07:55:35.669Z,38.10
2023-01-25T07:59:38.466Z,40.93
2023-01-25T08:03:41.628Z,36.53
2023-01-25T08:07:44.430Z,38.30
2023-01-25T08:11:49.330Z,33.97
2023-01-25T08:15:55.745Z,36.80
2023-01-25T08:19:58.948Z,35.43
2023-01-25T08:24:03.802Z,37.33
2023-01-25T08:28:08.118Z,42.87
2023-01-25T08:32:11.174Z,37.33
2023-01-25T08:36:15.037Z,38.03
2023-01-25T08:40:18.538Z,32.60
2023-01-25T08:44:24.101Z,33.07
2023-01-25T08:48:27.072Z,36.47
2023-01-25T08:52:30.031Z,31.63
2023-01-25T08:56:32.887Z,41.63
2023-01-25T09:00:37.010Z,36.03
2023-01-25T09:04:39.938Z,32.23
2023-01-25T09:08:43.334Z,36.10
2023-01-25T09:12:46.182Z,34.17
2023-01-25T09:16:51.257Z,35.30
2023-01-25T09:20:54.090Z,36.47
2023-01-25T09:24:56.887Z,34.17
2023-01-25T09:28:59.726Z,39.80
2023-01-25T09:33:04.829Z,33.70
2023-01-25T09:37:07.807Z,36.33
2023-01-25T09:41:28.938Z,31.13
2023-01-25T09:45:34.141Z,33.43
2023-01-25T09:50:02.242Z,36.30
2023-01-25T09:54:05.595Z,34.87
2023-01-25T09:58:18.791Z,35.03
2023-01-25T10:02:36.962Z,32.00
2023-01-25T10:06:48.831Z,32.23
2023-01-25T10:11:04.695Z,32.87
2023-01-25T10:15:19.853Z,37.67
2023-01-25T10:19:30.918Z,39.50
2023-01-25T10:24:14.006Z,36.90
2023-01-25T10:28:30.033Z,34.83
2023-01-25T10:32:35.901Z,36.60
2023-01-25T10:36:43.261Z,33.10
2023-01-25T10:40:52.547Z,36.37
2023-01-25T10:44:55.292Z,35.67
2023-01-25T10:48:58.023Z,34.93
2023-01-25T10:53:00.849Z,41.47
2023-01-25T10:57:07.905Z,42.63
2023-01-25T11:01:14.634Z,36.03
2023-01-25T11:05:29.726Z,42.57
2023-01-25T11:09:35.628Z,36.40
2023-01-25T11:13:42.624Z,39.43
2023-01-25T11:17:45.639Z,39.43
2023-01-25T11:21:53.261Z,36.37
2023-01-25T11:26:12.640Z,38.30
2023-01-25T11:30:19.745Z,42.53
2023-01-25T11:34:26.854Z,37.63
2023-01-25T11:38:30.431Z,37.30
2023-01-25T11:42:50.360Z,41.70
2023-01-25T11:47:02.514Z,36.53
2023-01-25T11:51:09.393Z,37.17
2023-01-25T11:55:23.642Z,37.60
2023-01-25T11:59:41.301Z,37.53
2023-01-25T12:04:31.553Z,41.87
2023-01-25T12:08:46.349Z,40.73
2023-01-25T12:12:57.891Z,41.00
2023-01-25T12:17:21.968Z,39.73
2023-01-25T12:21:36.452Z,35.80
2023-01-25T12:25:53.510Z,33.77
2023-01-25T12:30:01.629Z,38.80
2023-01-25T12:34:10.386Z,34.23
2023-01-25T12:38:18.643Z,33.13
2023-01-25T12:42:27.443Z,36.30
2023-01-25T12:46:35.774Z,36.53
2023-01-25T12:50:42.798Z,34.57
2023-01-25T12:54:48.596Z,40.83
2023-01-25T12:58:57.841Z,37.07
2023-01-25T13:03:13.414Z,41.60
2023-01-25T13:07:22.934Z,36.07
2023-01-25T13:11:31.353Z,36.13
2023-01-25T13:15:41.390Z,41.57
2023-01-25T13:19:44.204Z,41.80
2023-01-25T13:23:47.880Z,36.57
2023-01-25T13:27:51.293Z,37.73
2023-01-25T13:31:58.654Z,40.63
2023-01-25T13:36:35.184Z,39.93
2023-01-25T13:40:39.408Z,48.17
2023-01-25T13:44:45.513Z,43.63
2023-01-25T13:48:58.926Z,46.00
2023-01-25T13:53:03.784Z,48.83
2023-01-25T13:57:12.894Z,45.77
2023-01-25T14:01:19.941Z,46.73
2023-01-25T14:05:26.893Z,42.03
2023-01-25T14:09:30.996Z,51.97
2023-01-25T14:13:33.785Z,48.13
2023-01-25T14:17:36.628Z,45.77
2023-01-25T14:21:40.772Z,46.37
2023-01-25T14:25:43.667Z,44.27
2023-01-25T14:29:49.647Z,49.33
2023-01-25T14:33:58.147Z,53.07
2023-01-25T14:38:02.694Z,51.10
2023-01-25T14:42:06.193Z,50.90
2023-01-25T14:46:23.469Z,52.87
2023-01-25T14:50:36.931Z,52.10
2023-01-25T14:54:49.057Z,58.83
2023-01-25T14:58:59.490Z,53.10
2023-01-25T15:03:07.103Z,62.40
2023-01-25T15:07:35.423Z,58.30
2023-01-25T15:11:46.323Z,66.47
2023-01-25T15:15:54.098Z,59.90
2023-01-25T15:19:56.821Z,65.50
2023-01-25T15:24:04.605Z,59.53
2023-01-25T15:28:15.496Z,63.27
2023-01-25T15:32:20.999Z,59.20
2023-01-25T15:36:24.463Z,60.83
2023-01-25T15:40:27.282Z,56.53
2023-01-25T15:44:31.436Z,60.57
2023-01-25T15:48:36.176Z,61.57
2023-01-25T15:52:39.027Z,57.30
2023-01-25T15:56:43.683Z,65.50
2023-01-25T16:00:49.264Z,61.03
2023-01-25T16:04:52.128Z,65.27
2023-01-25T16:08:55.307Z,66.90
2023-01-25T16:12:58.095Z,67.03
2023-01-25T16:17:05.526Z,62.13
2023-01-25T16:21:12.372Z,64.33
2023-01-25T16:25:15.533Z,69.17
2023-01-25T16:29:18.389Z,62.30
2023-01-25T16:33:24.145Z,72.43
2023-01-25T16:37:26.950Z,76.23
2023-01-25T16:41:29.676Z,71.30
2023-01-25T16:45:32.589Z,72.68
2023-01-25T16:49:36.821Z,59.97
2023-01-25T16:53:39.694Z,72.83
2023-01-25T16:57:44.219Z,63.53
2023-01-25T17:01:47.462Z,71.33
2023-01-25T17:05:51.762Z,72.73
2023-01-25T17:09:54.830Z,75.20
2023-01-25T17:13:59.703Z,76.20
2023-01-25T17:18:02.559Z,77.53
2023-01-25T17:22:06.745Z,80.07
2023-01-25T17:26:11.644Z,71.30
2023-01-25T17:30:15.375Z,71.87
2023-01-25T17:34:19.545Z,76.83
2023-01-25T17:38:24.544Z,69.33
2023-01-25T17:42:27.354Z,76.53
2023-01-25T17:46:33.178Z,70.57
2023-01-25T17:50:37.093Z,74.83
2023-01-25T17:54:41.260Z,80.90
2023-01-25T17:58:44.081Z,80.60
2023-01-25T18:02:47.089Z,76.00
2023-01-25T18:06:50.004Z,86.47
2023-01-25T18:10:54.140Z,81.33
2023-01-25T18:14:56.897Z,74.67
2023-01-25T18:19:01.476Z,76.10
2023-01-25T18:23:04.338Z,74.57
2023-01-25T18:27:18.251Z,81.23
2023-01-25T18:31:21.210Z,69.20
2023-01-25T18:35:25.012Z,81.23
2023-01-25T18:39:28.169Z,69.33
2023-01-25T18:43:33.472Z,75.67
2023-01-25T18:47:36.354Z,67.83
2023-01-25T18:51:59.552Z,64.07
2023-01-25T18:56:03.666Z,73.57
2023-01-25T19:00:14.538Z,67.73
2023-01-25T19:04:17.369Z,81.87
2023-01-25T19:08:20.277Z,73.80
2023-01-25T19:12:23.237Z,79.47
2023-01-25T19:16:27.395Z,78.73
2023-01-25T19:20:30.317Z,75.33
2023-01-25T19:24:33.170Z,79.77
2023-01-25T19:28:36.029Z,73.40
2023-01-25T19:32:40.206Z,69.67
2023-01-25T19:36:49.776Z,75.73
2023-01-25T19:40:52.682Z,75.90
2023-01-25T19:44:55.550Z,71.77
2023-01-25T19:49:01.825Z,72.87
2023-01-25T19:53:04.666Z,73.23
2023-01-25T19:57:07.540Z,78.20
2023-01-25T20:01:12.428Z,79.67
2023-01-25T20:05:16.756Z,76.53
2023-01-25T20:09:24.764Z,77.13
2023-01-25T20:13:27.883Z,79.90
2023-01-25T20:17:30.714Z,71.33
2023-01-25T20:21:38.059Z,67.90
2023-01-25T20:25:40.911Z,70.23
2023-01-25T20:29:43.998Z,79.37
2023-01-25T20:33:46.964Z,68.50
2023-01-25T20:37:51.788Z,83.00
2023-01-25T20:41:56.612Z,75.47
2023-01-25T20:45:59.852Z,75.77
2023-01-25T20:50:02.653Z,83.47
2023-01-25T20:54:07.008Z,75.23
2023-01-25T20:58:10.160Z,81.57
2023-01-25T21:02:13.061Z,94.10
2023-01-25T21:06:17.245Z,80.13
2023-01-25T21:10:21.487Z,83.70
2023-01-25T21:14:24.384Z,94.00
2023-01-25T21:18:29.403Z,96.57
2023-01-25T21:22:32.514Z,96.30
2023-01-25T21:26:38.265Z,97.70
2023-01-25T21:30:41.158Z,92.30
2023-01-25T21:34:44.083Z,95.30
2023-01-25T21:38:48.623Z,119.00
2023-01-25T21:42:52.843Z,101.57
2023-01-25T21:47:23.625Z,109.60
2023-01-25T21:51:39.646Z,105.93
2023-01-25T21:55:42.477Z,115.07
2023-01-25T21:59:46.622Z,118.03
2023-01-25T22:03:49.858Z,132.87
2023-01-25T22:07:52.661Z,120.67
2023-01-25T22:11:55.489Z,120.13
2023-01-25T22:16:02.593Z,130.83
2023-01-25T22:20:08.202Z,138.33
2023-01-25T22:24:12.950Z,125.33
2023-01-25T22:28:16.798Z,129.33
2023-01-25T22:32:20.982Z,122.70
2023-01-25T22:36:26.164Z,117.80
2023-01-25T22:40:29.075Z,125.87
2023-01-25T22:44:31.932Z,133.53
2023-01-25T22:48:36.152Z,120.63
2023-01-25T22:52:38.963Z,147.67
2023-01-25T22:56:41.749Z,130.97
2023-01-25T23:00:44.861Z,128.33
2023-01-25T23:04:49.093Z,133.37
2023-01-25T23:08:55.874Z,136.07
2023-01-25T23:12:58.632Z,130.37
2023-01-25T23:17:15.283Z,134.90
2023-01-25T23:21:21.004Z,120.27
2023-01-25T23:25:23.878Z,133.07
2023-01-25T23:29:26.754Z,145.63
2023-01-25T23:33:30.521Z,125.40
2023-01-25T23:37:34.708Z,140.17
2023-01-25T23:41:37.606Z,142.93
2023-01-25T23:45:41.026Z,146.77
2023-01-25T23:49:43.834Z,126.80
2023-01-25T23:53:48.316Z,106.27
2023-01-25T23:57:54.107Z,123.20
